createdAt,value
2023-01-11T00:00:49.671Z,0.43
2023-01-11T00:03:17.528Z,1.20
2023-01-11T00:05:44.759Z,0.73
2023-01-11T00:08:12.393Z,0.57
2023-01-11T00:10:40.184Z,0.33
2023-01-11T00:13:07.475Z,0.40
2023-01-11T00:15:36.393Z,0.67
2023-01-11T00:18:03.452Z,0.20
2023-01-11T00:20:30.728Z,1.23
2023-01-11T00:22:58.143Z,0.37
2023-01-11T00:25:25.275Z,0.50
2023-01-11T00:27:52.436Z,0.47
2023-01-11T00:30:19.307Z,0.30
2023-01-11T00:32:46.392Z,0.27
2023-01-11T00:35:13.512Z,0.40
2023-01-11T00:37:40.699Z,0.50
2023-01-11T00:40:08.226Z,0.70
2023-01-11T00:42:53.774Z,1.40
2023-01-11T00:45:39.919Z,0.40
2023-01-11T00:48:07.322Z,0.30
2023-01-11T00:50:36.500Z,0.30
2023-01-11T00:53:04.061Z,1.03
2023-01-11T00:55:34.620Z,0.33
2023-01-11T00:58:01.945Z,0.30
2023-01-11T01:00:30.315Z,0.57
2023-01-11T01:02:57.783Z,0.30
2023-01-11T01:05:24.932Z,0.50
2023-01-11T01:07:52.118Z,0.60
2023-01-11T01:10:19.520Z,0.30
2023-01-11T01:13:05.204Z,0.60
2023-01-11T01:15:32.560Z,0.83
2023-01-11T01:17:59.879Z,0.30
2023-01-11T01:20:27.008Z,1.50
2023-01-11T01:22:54.132Z,1.00
2023-01-11T01:25:21.240Z,0.47
2023-01-11T01:27:48.309Z,0.30
2023-01-11T01:30:15.475Z,0.50
2023-01-11T01:32:42.493Z,0.50
2023-01-11T01:35:09.874Z,0.40
2023-01-11T01:37:37.020Z,0.40
2023-01-11T01:40:04.985Z,0.70
2023-01-11T01:42:32.028Z,0.60
2023-01-11T01:45:23.614Z,0.83
2023-01-11T01:47:57.076Z,0.43
2023-01-11T01:50:29.086Z,0.40
2023-01-11T01:53:04.372Z,0.40
2023-01-11T01:55:35.946Z,0.50
2023-01-11T01:58:06.925Z,0.40
2023-01-11T02:00:34.111Z,0.30
2023-01-11T02:03:02.040Z,0.53
2023-01-11T02:05:29.165Z,0.33
2023-01-11T02:07:59.354Z,1.43
2023-01-11T02:10:29.547Z,0.30
2023-01-11T02:13:02.572Z,0.47
2023-01-11T02:15:29.524Z,2.03
2023-01-11T02:17:56.630Z,0.30
2023-01-11T02:20:45.129Z,0.50
2023-01-11T02:23:40.103Z,0.73
2023-01-11T02:26:40.053Z,0.10
2023-01-11T02:29:09.590Z,0.83
2023-01-11T02:31:58.631Z,0.30
2023-01-11T02:34:38.719Z,0.40
2023-01-11T02:37:30.140Z,0.20
2023-01-11T02:40:08.104Z,1.23
2023-01-11T02:43:09.743Z,0.23
2023-01-11T02:45:50.401Z,1.40
2023-01-11T02:48:28.893Z,0.57
2023-01-11T02:50:55.914Z,0.50
2023-01-11T02:53:34.552Z,0.80
2023-01-11T02:56:06.014Z,0.20
2023-01-11T02:58:36.870Z,0.20
2023-01-11T03:01:04.405Z,0.47
2023-01-11T03:03:32.186Z,1.40
2023-01-11T03:06:06.815Z,0.77
2023-01-11T03:09:06.630Z,0.30
2023-01-11T03:12:06.930Z,1.97
2023-01-11T03:15:04.037Z,0.43
2023-01-11T03:17:55.629Z,0.20
2023-01-11T03:20:34.163Z,0.63
2023-01-11T03:23:23.346Z,0.63
2023-01-11T03:25:58.899Z,0.20
2023-01-11T03:28:34.507Z,2.03
2023-01-11T03:31:25.305Z,0.57
2023-01-11T03:33:52.400Z,0.17
2023-01-11T03:36:34.723Z,0.23
2023-01-11T03:39:09.789Z,0.40
2023-01-11T03:41:40.165Z,0.13
2023-01-11T03:44:09.212Z,2.10
2023-01-11T03:46:45.979Z,0.70
2023-01-11T03:49:22.739Z,0.20
2023-01-11T03:51:51.573Z,0.77
2023-01-11T03:54:24.423Z,0.20
2023-01-11T03:57:13.193Z,0.30
2023-01-11T03:59:40.486Z,0.23
2023-01-11T04:02:15.291Z,0.50
2023-01-11T04:04:42.461Z,0.20
2023-01-11T04:07:09.494Z,0.20
2023-01-11T04:09:38.220Z,0.27
2023-01-11T04:12:05.512Z,0.20
2023-01-11T04:14:32.582Z,6.03
2023-01-11T04:16:59.179Z,0.20
2023-01-11T04:19:26.542Z,0.20
2023-01-11T04:21:53.650Z,0.20
2023-01-11T04:24:21.522Z,0.93
2023-01-11T04:26:48.601Z,0.27
2023-01-11T04:29:15.237Z,0.40
2023-01-11T04:31:42.316Z,0.10
2023-01-11T04:34:09.410Z,0.20
2023-01-11T04:36:36.498Z,1.20
2023-01-11T04:39:03.690Z,0.13
2023-01-11T04:41:49.387Z,0.43
2023-01-11T04:44:16.428Z,0.17
2023-01-11T04:46:43.489Z,0.30
2023-01-11T04:49:10.583Z,0.20
2023-01-11T04:51:37.698Z,0.40
2023-01-11T04:54:05.088Z,0.20
2023-01-11T04:56:32.189Z,0.10
2023-01-11T04:58:59.244Z,0.13
2023-01-11T05:01:26.388Z,2.63
2023-01-11T05:03:54.373Z,0.40
2023-01-11T05:06:24.580Z,0.10
2023-01-11T05:08:51.823Z,0.10
2023-01-11T05:11:19.008Z,0.13
2023-01-11T05:13:45.655Z,0.60
2023-01-11T05:16:13.279Z,0.10
2023-01-11T05:18:45.275Z,0.10
2023-01-11T05:21:13.812Z,0.17
2023-01-11T05:23:41.755Z,0.20
2023-01-11T05:26:11.677Z,0.30
2023-01-11T05:28:39.132Z,0.20
2023-01-11T05:31:06.262Z,0.20
2023-01-11T05:33:33.434Z,0.20
2023-01-11T05:36:02.115Z,0.20
2023-01-11T05:38:29.449Z,0.17
2023-01-11T05:40:56.554Z,0.47
2023-01-11T05:43:23.582Z,0.30
2023-01-11T05:45:50.761Z,0.20
2023-01-11T05:48:17.849Z,0.10
2023-01-11T05:50:44.986Z,0.20
2023-01-11T05:53:12.047Z,0.20
2023-01-11T05:55:39.084Z,1.00
2023-01-11T05:58:06.712Z,0.10
2023-01-11T06:00:33.807Z,0.10
2023-01-11T06:03:01.628Z,0.20
2023-01-11T06:05:28.857Z,0.50
2023-01-11T06:07:55.909Z,0.20
2023-01-11T06:10:22.966Z,0.20
2023-01-11T06:13:12.685Z,1.60
2023-01-11T06:15:39.982Z,3.50
2023-01-11T06:18:07.059Z,1.30
2023-01-11T06:20:34.188Z,0.10
2023-01-11T06:23:01.443Z,0.20
2023-01-11T06:25:30.256Z,0.20
2023-01-11T06:27:57.604Z,0.20
2023-01-11T06:30:25.831Z,0.20
2023-01-11T06:32:53.090Z,0.33
2023-01-11T06:35:20.220Z,3.10
2023-01-11T06:37:47.553Z,0.37
2023-01-11T06:40:14.651Z,0.33
2023-01-11T06:42:41.250Z,0.97
2023-01-11T06:45:08.756Z,0.20
2023-01-11T06:47:35.822Z,0.30
2023-01-11T06:50:02.848Z,1.23
2023-01-11T06:52:29.927Z,0.30
2023-01-11T06:54:56.961Z,0.30
2023-01-11T06:57:23.551Z,0.27
2023-01-11T06:59:50.583Z,0.10
2023-01-11T07:02:17.827Z,0.37
2023-01-11T07:04:44.912Z,0.37
2023-01-11T07:07:11.961Z,0.33
2023-01-11T07:09:39.028Z,0.20
2023-01-11T07:12:06.209Z,0.20
2023-01-11T07:14:33.271Z,0.20
2023-01-11T07:17:00.332Z,0.67
2023-01-11T07:19:26.959Z,0.43
2023-01-11T07:21:54.000Z,0.60
2023-01-11T07:24:20.578Z,0.30
2023-01-11T07:26:47.631Z,0.13
2023-01-11T07:29:14.670Z,1.17
2023-01-11T07:31:41.696Z,0.20
2023-01-11T07:34:09.461Z,0.20
2023-01-11T07:36:39.417Z,0.20
2023-01-11T07:39:07.003Z,0.20
2023-01-11T07:41:52.691Z,0.10
2023-01-11T07:44:19.767Z,0.20
2023-01-11T07:46:46.461Z,7.03
2023-01-11T07:49:13.595Z,0.30
2023-01-11T07:51:40.639Z,0.10
2023-01-11T07:54:07.683Z,0.20
2023-01-11T07:56:34.725Z,1.83
2023-01-11T07:59:01.817Z,0.30
2023-01-11T08:01:28.841Z,0.57
2023-01-11T08:03:55.933Z,0.30
2023-01-11T08:06:23.087Z,1.60
2023-01-11T08:08:50.133Z,0.73
2023-01-11T08:11:35.869Z,0.30
2023-01-11T08:14:21.363Z,0.47
2023-01-11T08:16:48.443Z,0.20
2023-01-11T08:19:15.624Z,0.20
2023-01-11T08:21:44.447Z,0.23
2023-01-11T08:24:11.139Z,0.50
2023-01-11T08:26:38.238Z,0.47
2023-01-11T08:29:04.818Z,4.13
2023-01-11T08:31:31.858Z,0.53
2023-01-11T08:33:58.983Z,0.83
2023-01-11T08:36:27.569Z,0.40
2023-01-11T08:38:57.659Z,0.83
2023-01-11T08:41:25.125Z,0.60
2023-01-11T08:43:52.200Z,0.97
2023-01-11T08:46:19.475Z,0.70
2023-01-11T08:48:46.842Z,0.30
2023-01-11T08:51:14.231Z,0.53
2023-01-11T08:53:41.270Z,0.60
2023-01-11T08:56:08.673Z,0.20
2023-01-11T08:58:36.065Z,0.30
2023-01-11T09:01:04.112Z,1.37
2023-01-11T09:03:31.230Z,0.50
2023-01-11T09:05:58.262Z,2.23
2023-01-11T09:08:26.212Z,4.90
2023-01-11T09:10:53.247Z,2.33
2023-01-11T09:13:19.908Z,5.70
2023-01-11T09:15:47.013Z,1.83
2023-01-11T09:18:14.881Z,1.20
2023-01-11T09:20:41.515Z,0.83
2023-01-11T09:23:08.544Z,1.03
2023-01-11T09:25:35.582Z,1.20
2023-01-11T09:28:02.625Z,0.50
2023-01-11T09:30:29.705Z,0.57
2023-01-11T09:32:57.495Z,1.27
2023-01-11T09:35:25.162Z,0.77
2023-01-11T09:37:54.968Z,0.47
2023-01-11T09:40:42.003Z,0.30
2023-01-11T09:43:14.791Z,1.30
2023-01-11T09:45:46.823Z,1.00
2023-01-11T09:48:33.183Z,0.60
2023-01-11T09:51:01.471Z,0.70
2023-01-11T09:53:34.803Z,3.00
2023-01-11T09:56:05.020Z,3.90
2023-01-11T09:58:54.817Z,1.03
2023-01-11T10:01:53.498Z,1.07
2023-01-11T10:04:45.647Z,1.27
2023-01-11T10:18:37.854Z,2.00
2023-01-11T10:18:39.202Z,3.30
2023-01-11T10:20:27.733Z,5.33
2023-01-11T10:23:04.926Z,3.70
2023-01-11T10:25:44.072Z,2.40
2023-01-11T10:28:46.935Z,5.10
2023-01-11T10:31:49.180Z,3.57
2023-01-11T10:34:50.414Z,2.60
2023-01-11T10:37:59.767Z,2.83
2023-01-11T10:40:35.180Z,4.37
2023-01-11T10:43:16.982Z,5.70
2023-01-11T10:45:50.666Z,3.43
2023-01-11T10:48:33.173Z,3.83
2023-01-11T10:51:29.753Z,5.23
2023-01-11T10:57:02.718Z,6.13
2023-01-11T10:59:50.830Z,3.37
2023-01-11T11:02:42.200Z,4.20
2023-01-11T11:05:26.230Z,5.00
2023-01-11T11:07:58.528Z,6.20
2023-01-11T11:10:53.174Z,6.90
2023-01-11T11:13:20.173Z,8.13
2023-01-11T11:16:26.805Z,8.50
2023-01-11T11:18:59.050Z,6.87
2023-01-11T11:21:33.848Z,7.13
2023-01-11T11:24:16.979Z,7.93
2023-01-11T11:26:49.329Z,8.23
2023-01-11T11:29:22.775Z,6.97
2023-01-11T11:31:51.305Z,14.80
2023-01-11T11:34:20.677Z,13.10
2023-01-11T11:36:50.113Z,12.17
2023-01-11T11:39:25.157Z,9.27
2023-01-11T11:41:56.113Z,8.50
2023-01-11T11:44:27.733Z,11.17
2023-01-11T11:47:06.008Z,6.40
2023-01-11T11:49:35.441Z,12.63
2023-01-11T11:52:05.110Z,10.90
2023-01-11T11:54:34.797Z,8.97
2023-01-11T11:57:28.330Z,9.53
2023-01-11T12:00:06.381Z,8.60
2023-01-11T12:02:36.200Z,9.53
2023-01-11T12:05:09.953Z,10.33
2023-01-11T12:07:54.234Z,13.27
2023-01-11T12:10:24.413Z,7.80
2023-01-11T12:13:02.573Z,6.67
2023-01-11T12:15:31.377Z,9.90
2023-01-11T12:18:28.888Z,9.00
2023-01-11T12:20:56.103Z,12.90
2023-01-11T12:23:25.504Z,7.53
2023-01-11T12:26:10.641Z,14.63
2023-01-11T12:28:46.351Z,10.97
2023-01-11T12:31:46.918Z,11.33
2023-01-11T12:34:34.683Z,7.20
2023-01-11T12:37:31.834Z,9.50
2023-01-11T12:40:13.743Z,10.53
2023-01-11T12:42:52.805Z,9.13
2023-01-11T12:45:57.100Z,10.97
2023-01-11T12:48:45.144Z,11.40
2023-01-11T12:51:12.251Z,14.97
2023-01-11T12:53:58.962Z,13.43
2023-01-11T12:56:49.860Z,12.50
2023-01-11T12:59:39.685Z,12.03
2023-01-11T13:02:47.125Z,13.53
2023-01-11T13:05:35.706Z,9.90
2023-01-11T13:08:53.104Z,7.47
2023-01-11T13:11:52.231Z,8.53
2023-01-11T13:14:22.459Z,10.30
2023-01-11T13:17:09.525Z,7.23
2023-01-11T13:19:37.420Z,13.63
2023-01-11T13:22:10.793Z,6.83
2023-01-11T13:24:38.325Z,8.03
2023-01-11T13:27:08.055Z,14.00
2023-01-11T13:29:39.794Z,7.17
2023-01-11T13:32:16.734Z,9.20
2023-01-11T13:35:16.024Z,12.17
2023-01-11T13:37:54.736Z,10.17
2023-01-11T13:40:28.738Z,10.20
2023-01-11T13:43:05.237Z,10.60
2023-01-11T13:45:47.880Z,10.63
2023-01-11T13:48:27.193Z,7.07
2023-01-11T13:51:02.811Z,10.80
2023-01-11T13:53:43.538Z,12.70
2023-01-11T13:56:17.369Z,17.10
2023-01-11T13:58:55.919Z,14.03
2023-01-11T14:01:40.049Z,11.47
2023-01-11T14:04:30.518Z,17.33
2023-01-11T14:07:17.080Z,10.93
2023-01-11T14:10:02.530Z,10.67
2023-01-11T14:12:52.981Z,13.93
2023-01-11T14:15:40.523Z,13.80
2023-01-11T14:18:09.134Z,10.43
2023-01-11T14:21:11.655Z,10.97
2023-01-11T14:23:49.144Z,9.43
2023-01-11T14:26:34.721Z,9.13
2023-01-11T14:29:38.682Z,11.67
2023-01-11T14:32:43.336Z,8.77
2023-01-11T14:35:25.221Z,10.33
2023-01-11T14:38:06.745Z,13.30
2023-01-11T14:41:15.706Z,11.80
2023-01-11T14:44:20.115Z,8.13
2023-01-11T14:46:47.201Z,10.77
2023-01-11T14:49:53.633Z,9.93
2023-01-11T14:52:39.291Z,10.67
2023-01-11T14:55:20.359Z,16.03
2023-01-11T14:57:55.849Z,12.20
2023-01-11T15:00:22.488Z,7.43
2023-01-11T15:02:59.613Z,11.73
2023-01-11T15:05:54.280Z,8.87
2023-01-11T15:08:27.055Z,13.93
2023-01-11T15:10:54.081Z,8.37
2023-01-11T15:13:23.054Z,10.07
2023-01-11T15:16:08.964Z,9.50
2023-01-11T15:18:44.735Z,8.47
2023-01-11T15:21:17.638Z,9.83
2023-01-11T15:23:51.006Z,11.60
2023-01-11T15:26:21.195Z,9.77
2023-01-11T15:29:00.148Z,12.80
2023-01-11T15:31:34.167Z,9.67
2023-01-11T15:34:16.480Z,10.67
2023-01-11T15:37:25.126Z,8.87
2023-01-11T15:39:57.843Z,10.57
2023-01-11T15:42:43.399Z,11.03
2023-01-11T15:45:22.780Z,7.67
2023-01-11T15:47:49.876Z,6.37
2023-01-11T15:50:34.831Z,9.73
2023-01-11T15:53:29.802Z,10.40
2023-01-11T15:56:20.126Z,12.77
2023-01-11T15:59:17.785Z,16.07
2023-01-11T16:02:13.396Z,11.57
2023-01-11T16:04:53.221Z,10.43
2023-01-11T16:07:40.625Z,15.97
2023-01-11T16:10:27.507Z,12.67
2023-01-11T16:13:00.439Z,15.67
2023-01-11T16:15:35.517Z,19.23
2023-01-11T16:18:17.931Z,12.23
2023-01-11T16:20:56.236Z,10.80
2023-01-11T16:23:23.560Z,9.63
2023-01-11T16:25:57.305Z,10.83
2023-01-11T16:28:25.372Z,10.80
2023-01-11T16:31:01.675Z,7.43
2023-01-11T16:33:30.613Z,14.97
2023-01-11T16:36:10.794Z,14.67
2023-01-11T16:38:56.798Z,16.33
2023-01-11T16:41:27.534Z,17.07
2023-01-11T16:44:08.763Z,18.40
2023-01-11T16:46:56.479Z,12.57
2023-01-11T16:49:23.529Z,8.93
2023-01-11T16:51:50.567Z,13.63
2023-01-11T16:54:27.292Z,11.67
2023-01-11T16:56:54.817Z,11.20
2023-01-11T16:59:26.456Z,10.03
2023-01-11T17:02:01.156Z,22.93
2023-01-11T17:04:28.430Z,11.73
2023-01-11T17:06:56.026Z,15.52
2023-01-11T17:09:23.222Z,14.37
2023-01-11T17:11:52.612Z,13.53
2023-01-11T17:14:25.331Z,11.37
2023-01-11T17:16:59.098Z,10.40
2023-01-11T17:19:37.579Z,9.83
2023-01-11T17:22:30.688Z,11.97
2023-01-11T17:25:04.448Z,13.87
2023-01-11T17:27:40.525Z,12.93
2023-01-11T17:30:23.861Z,15.00
2023-01-11T17:32:52.986Z,15.67
2023-01-11T17:35:23.071Z,12.73
2023-01-11T17:37:51.869Z,11.30
2023-01-11T17:40:36.184Z,15.93
2023-01-11T17:43:28.408Z,12.83
2023-01-11T17:45:59.210Z,15.30
2023-01-11T17:48:27.475Z,11.83
2023-01-11T17:50:57.264Z,12.90
2023-01-11T17:53:28.293Z,11.50
2023-01-11T17:55:57.638Z,10.50
2023-01-11T17:58:38.039Z,14.27
2023-01-11T18:01:07.497Z,16.13
2023-01-11T18:03:47.961Z,7.93
2023-01-11T18:06:31.564Z,14.63
2023-01-11T18:09:00.229Z,13.27
2023-01-11T18:11:30.216Z,9.30
2023-01-11T18:14:01.108Z,10.83
2023-01-11T18:16:28.416Z,17.50
2023-01-11T18:18:55.654Z,12.87
2023-01-11T18:21:25.222Z,11.27
2023-01-11T18:24:10.417Z,7.67
2023-01-11T18:26:39.220Z,7.50
2023-01-11T18:29:06.390Z,15.43
2023-01-11T18:31:33.440Z,10.77
2023-01-11T18:34:00.550Z,10.97
2023-01-11T18:36:29.711Z,11.00
2023-01-11T18:38:56.820Z,13.73
2023-01-11T18:41:44.605Z,13.30
2023-01-11T18:44:12.069Z,9.17
2023-01-11T18:46:39.072Z,14.47
2023-01-11T18:49:06.090Z,15.40
2023-01-11T18:51:41.483Z,9.33
2023-01-11T18:54:17.179Z,14.27
2023-01-11T18:56:44.286Z,9.97
2023-01-11T18:59:11.365Z,10.80
2023-01-11T19:01:52.648Z,7.47
2023-01-11T19:04:23.437Z,9.23
2023-01-11T19:06:52.225Z,8.30
2023-01-11T19:09:19.348Z,11.57
2023-01-11T19:11:46.384Z,20.80
2023-01-11T19:14:13.471Z,9.53
2023-01-11T19:16:40.565Z,8.30
2023-01-11T19:19:07.635Z,6.50
2023-01-11T19:21:34.793Z,13.53
2023-01-11T19:24:02.318Z,8.50
2023-01-11T19:26:29.516Z,8.93
2023-01-11T19:28:56.841Z,14.40
2023-01-11T19:31:23.623Z,7.33
2023-01-11T19:33:50.775Z,6.70
2023-01-11T19:36:17.852Z,11.43
2023-01-11T19:38:45.045Z,8.77
2023-01-11T19:41:12.106Z,10.30
2023-01-11T19:43:44.799Z,11.50
2023-01-11T19:46:13.576Z,6.00
2023-01-11T19:48:41.044Z,8.03
2023-01-11T19:51:10.567Z,8.93
2023-01-11T19:53:37.753Z,6.97
2023-01-11T19:56:07.444Z,11.87
2023-01-11T19:58:37.199Z,6.37
2023-01-11T20:01:13.243Z,12.37
2023-01-11T20:03:46.212Z,11.27
2023-01-11T20:06:13.421Z,10.60
2023-01-11T20:08:41.165Z,12.00
2023-01-11T20:11:10.628Z,10.17
2023-01-11T20:13:38.053Z,12.70
2023-01-11T20:16:13.635Z,9.50
2023-01-11T20:18:42.352Z,13.93
2023-01-11T20:21:10.371Z,8.67
2023-01-11T20:23:37.672Z,7.70
2023-01-11T20:26:06.897Z,11.23
2023-01-11T20:28:33.973Z,9.57
2023-01-11T20:31:02.202Z,8.70
2023-01-11T20:33:29.602Z,7.07
2023-01-11T20:35:56.749Z,7.90
2023-01-11T20:38:24.023Z,11.63
2023-01-11T20:40:51.252Z,11.37
2023-01-11T20:43:18.566Z,7.30
2023-01-11T20:45:55.244Z,10.90
2023-01-11T20:48:22.353Z,8.67
2023-01-11T20:50:49.373Z,8.70
2023-01-11T20:53:16.547Z,11.47
2023-01-11T20:55:43.805Z,10.90
2023-01-11T20:58:11.014Z,8.97
2023-01-11T21:00:38.131Z,8.77
2023-01-11T21:03:05.199Z,9.50
2023-01-11T21:05:31.865Z,7.63
2023-01-11T21:07:59.162Z,5.77
2023-01-11T21:10:26.227Z,14.27
2023-01-11T21:12:56.389Z,8.77
2023-01-11T21:15:23.877Z,6.40
2023-01-11T21:17:51.082Z,8.23
2023-01-11T21:20:18.283Z,7.30
2023-01-11T21:22:45.392Z,7.70
2023-01-11T21:25:12.668Z,5.23
2023-01-11T21:27:39.789Z,9.27
2023-01-11T21:30:07.074Z,3.50
2023-01-11T21:32:34.118Z,7.23
2023-01-11T21:35:01.218Z,7.57
2023-01-11T21:37:29.831Z,7.27
2023-01-11T21:39:57.885Z,5.80
2023-01-11T21:42:25.875Z,7.70
2023-01-11T21:44:52.964Z,8.70
2023-01-11T21:47:20.063Z,3.47
2023-01-11T21:49:47.098Z,7.27
2023-01-11T21:52:14.259Z,7.37
2023-01-11T21:54:41.282Z,6.47
2023-01-11T21:57:08.482Z,6.57
2023-01-11T21:59:35.795Z,3.90
2023-01-11T22:02:02.928Z,9.73
2023-01-11T22:04:29.999Z,9.60
2023-01-11T22:06:58.662Z,7.57
2023-01-11T22:09:28.022Z,10.87
2023-01-11T22:11:55.350Z,9.83
2023-01-11T22:14:22.569Z,6.63
2023-01-11T22:16:49.297Z,3.63
2023-01-11T22:19:16.984Z,4.90
2023-01-11T22:21:44.082Z,5.47
2023-01-11T22:24:15.337Z,6.63
2023-01-11T22:26:42.440Z,7.40
2023-01-11T22:29:12.778Z,5.20
2023-01-11T22:31:45.947Z,9.60
2023-01-11T22:34:13.900Z,4.97
2023-01-11T22:36:41.488Z,8.53
2023-01-11T22:39:08.558Z,6.93
2023-01-11T22:41:35.625Z,5.13
2023-01-11T22:44:02.819Z,8.60
2023-01-11T22:46:29.941Z,7.47
2023-01-11T22:48:56.999Z,5.43
2023-01-11T22:51:25.071Z,5.50
2023-01-11T22:53:54.112Z,5.63
2023-01-11T22:56:24.869Z,7.23
2023-01-11T22:58:55.580Z,4.13
2023-01-11T23:01:32.216Z,7.13
2023-01-11T23:03:59.861Z,3.67
2023-01-11T23:06:31.661Z,10.33
2023-01-11T23:08:59.344Z,8.17
2023-01-11T23:11:47.559Z,6.30
2023-01-11T23:14:19.975Z,6.60
2023-01-11T23:16:48.426Z,8.97
2023-01-11T23:19:17.811Z,6.67
2023-01-11T23:21:45.760Z,10.90
2023-01-11T23:24:14.386Z,6.07
2023-01-11T23:26:41.704Z,5.17
2023-01-11T23:29:08.375Z,5.30
2023-01-11T23:31:35.528Z,3.13
2023-01-11T23:34:03.174Z,4.00
2023-01-11T23:36:33.019Z,6.20
2023-01-11T23:39:00.408Z,4.53
2023-01-11T23:41:45.637Z,10.73
2023-01-11T23:44:14.110Z,8.80
2023-01-11T23:46:59.982Z,6.60
2023-01-11T23:49:27.682Z,6.83
2023-01-11T23:51:55.579Z,4.90
2023-01-11T23:54:23.054Z,4.80
2023-01-11T23:56:50.155Z,7.17
2023-01-11T23:59:17.291Z,4.47
